ANA232 EDDF-RJAA
Flight info
| Callsign | ANA232 |
|---|---|
| Flight time | N/A |
| Altitude | 31000 |
| Route | SULUS7S SULUS Z650 VEMUT DCT PEPIK DCT ERGOM DCT DINRO/N0489F330 N743 UDROS UM859 KARDE UL851 TBN UN61 NOLGA N61 LAGAS M747 SUBUT T916 LEYLA N161 GASBI/K0913F330 N161 ABURA/K0896F350 N161 SARIN/K0896S1070 A368 FKG W188 LIKMI W270 DKO W69 TOREL/K0911S1130 W69 HUR B339 LADIX W34 VAPGU W100 ORAVA W201 UNSEK A326 DONVO G597 AGAVO/N0486F370 Y644 EGOBA Y697 LANAT Y51 SAMON Y517 ESKAS Y303 ENTAK/N0483F380 Y30 SWAMP |
| Aircraft | B77W/H-SDE1E2E3FGHIJ2J3J4J5M1RWXY/LB1D1 |
Departure
| Time | N/A |
|---|---|
| Airport | Frankfurt Main Airport (EDDF) |
Arrival
| Time | 2026-05-06 21:32 |
|---|---|
| Airport | Narita International Airport (RJAA) |
| Time | Latitude | Longitude | Altitude | Speed | Heading |
|---|---|---|---|---|---|
| 2026-05-06 18:31 | 40.60971 | 109.61359 | 35277 ft | 563 kts | 78° |
| 2026-05-06 18:31 | 40.61491 | 109.66495 | 35296 ft | 563 kts | 79° |
| 2026-05-06 18:32 | 40.62521 | 109.76730 | 35273 ft | 564 kts | 79° |
| 2026-05-06 18:32 | 40.63544 | 109.86991 | 35278 ft | 564 kts | 79° |
| 2026-05-06 18:33 | 40.64053 | 109.92123 | 35508 ft | 566 kts | 79° |
| 2026-05-06 18:33 | 40.64512 | 109.97208 | 35274 ft | 565 kts | 83° |
| 2026-05-06 18:33 | 40.64619 | 110.07620 | 35512 ft | 568 kts | 88° |
| 2026-05-06 18:34 | 40.64597 | 110.12791 | 35287 ft | 568 kts | 88° |
| 2026-05-06 18:34 | 40.64571 | 110.18036 | 35273 ft | 569 kts | 88° |
| 2026-05-06 18:34 | 40.64513 | 110.28431 | 35285 ft | 571 kts | 88° |
| 2026-05-06 18:35 | 40.64444 | 110.38912 | 35177 ft | 567 kts | 88° |
| 2026-05-06 18:35 | 40.64361 | 110.49307 | 35503 ft | 571 kts | 88° |
| 2026-05-06 18:36 | 40.64320 | 110.54493 | 35325 ft | 569 kts | 88° |
| 2026-05-06 18:36 | 40.64277 | 110.59680 | 35119 ft | 566 kts | 88° |
| 2026-05-06 18:36 | 40.64183 | 110.70152 | 35420 ft | 572 kts | 89° |
| 2026-05-06 18:37 | 40.64077 | 110.80599 | 35111 ft | 569 kts | 89° |
| 2026-05-06 18:37 | 40.64021 | 110.85764 | 35413 ft | 572 kts | 89° |
| 2026-05-06 18:37 | 40.63963 | 110.90989 | 35300 ft | 570 kts | 89° |
| 2026-05-06 18:38 | 40.63838 | 111.01403 | 35288 ft | 572 kts | 89° |
| 2026-05-06 18:38 | 40.63703 | 111.11856 | 35305 ft | 570 kts | 89° |
| 2026-05-06 18:39 | 40.63559 | 111.22302 | 35296 ft | 569 kts | 89° |
| 2026-05-06 18:40 | 40.63327 | 111.37942 | 35306 ft | 570 kts | 90° |
| 2026-05-06 18:40 | 40.63160 | 111.48354 | 35301 ft | 570 kts | 89° |
| 2026-05-06 18:41 | 40.62983 | 111.58752 | 35299 ft | 569 kts | 90° |
| 2026-05-06 18:41 | 40.62796 | 111.69202 | 35280 ft | 571 kts | 90° |
| 2026-05-06 18:42 | 40.62600 | 111.79662 | 35273 ft | 572 kts | 90° |
| 2026-05-06 18:42 | 40.62397 | 111.90045 | 35270 ft | 570 kts | 90° |
| 2026-05-06 18:43 | 40.62200 | 112.00459 | 35287 ft | 571 kts | 90° |
| 2026-05-06 18:43 | 40.61964 | 112.10899 | 35270 ft | 572 kts | 91° |
| 2026-05-06 18:44 | 40.61728 | 112.21317 | 35242 ft | 570 kts | 91° |
| 2026-05-06 18:44 | 40.61484 | 112.31703 | 35236 ft | 569 kts | 91° |
| 2026-05-06 18:45 | 40.61230 | 112.42092 | 35233 ft | 570 kts | 91° |
| 2026-05-06 18:45 | 40.60929 | 112.52518 | 35350 ft | 570 kts | 93° |
| 2026-05-06 18:45 | 40.60641 | 112.57687 | 35047 ft | 572 kts | 94° |
| 2026-05-06 18:46 | 40.60331 | 112.62900 | 35194 ft | 572 kts | 94° |
| 2026-05-06 18:46 | 40.59712 | 112.73312 | 35188 ft | 571 kts | 95° |
| 2026-05-06 18:47 | 40.58861 | 112.83701 | 35226 ft | 574 kts | 96° |
| 2026-05-06 18:47 | 40.58149 | 112.94160 | 35211 ft | 573 kts | 95° |
| 2026-05-06 18:48 | 40.57454 | 113.04520 | 35206 ft | 573 kts | 95° |
| 2026-05-06 18:48 | 40.56748 | 113.14943 | 35236 ft | 573 kts | 95° |
| 2026-05-06 18:49 | 40.56031 | 113.25384 | 35207 ft | 573 kts | 95° |
| 2026-05-06 18:49 | 40.55310 | 113.35752 | 35206 ft | 573 kts | 95° |
| 2026-05-06 18:50 | 40.54574 | 113.46204 | 35210 ft | 574 kts | 95° |
| 2026-05-06 18:50 | 40.53834 | 113.56582 | 35181 ft | 571 kts | 96° |
| 2026-05-06 18:51 | 40.53086 | 113.66939 | 35180 ft | 571 kts | 96° |
| 2026-05-06 18:51 | 40.52325 | 113.77345 | 35167 ft | 573 kts | 96° |
| 2026-05-06 18:52 | 40.51688 | 113.85955 | 35169 ft | 571 kts | 97° |
| 2026-05-06 18:52 | 40.50786 | 113.98023 | 35159 ft | 571 kts | 96° |
| 2026-05-06 18:53 | 40.50233 | 114.08457 | 35163 ft | 573 kts | 93° |
| 2026-05-06 18:53 | 40.49824 | 114.18887 | 35195 ft | 572 kts | 94° |
| 2026-05-06 18:54 | 40.49540 | 114.25800 | 35208 ft | 576 kts | 94° |
| 2026-05-06 18:54 | 40.48942 | 114.39753 | 35203 ft | 572 kts | 94° |
| 2026-05-06 18:55 | 40.48479 | 114.50161 | 35194 ft | 573 kts | 94° |
| 2026-05-06 18:55 | 40.48002 | 114.60603 | 35186 ft | 575 kts | 94° |
| 2026-05-06 18:56 | 40.47512 | 114.71079 | 35114 ft | 576 kts | 94° |
| 2026-05-06 18:56 | 40.47014 | 114.81516 | 35138 ft | 572 kts | 95° |
| 2026-05-06 18:57 | 40.46502 | 114.92020 | 35143 ft | 577 kts | 94° |
| 2026-05-06 18:57 | 40.45987 | 115.02420 | 35178 ft | 573 kts | 95° |
| 2026-05-06 18:58 | 40.45456 | 115.12897 | 35216 ft | 574 kts | 95° |
| 2026-05-06 18:58 | 40.44917 | 115.23387 | 35186 ft | 577 kts | 95° |
| 2026-05-06 18:59 | 40.44369 | 115.33833 | 35183 ft | 576 kts | 94° |
| 2026-05-06 18:59 | 40.43808 | 115.44363 | 35173 ft | 578 kts | 95° |
| 2026-05-06 19:00 | 40.43234 | 115.54849 | 35139 ft | 578 kts | 96° |
| 2026-05-06 19:00 | 40.42399 | 115.65390 | 35108 ft | 580 kts | 98° |
| 2026-05-06 19:01 | 40.41528 | 115.75879 | 35103 ft | 581 kts | 98° |
| 2026-05-06 19:01 | 40.40656 | 115.86430 | 35089 ft | 582 kts | 97° |
| 2026-05-06 19:02 | 40.39778 | 115.97015 | 35096 ft | 582 kts | 98° |
| 2026-05-06 19:02 | 40.38889 | 116.07600 | 35098 ft | 583 kts | 97° |
| 2026-05-06 19:03 | 40.37997 | 116.18130 | 35097 ft | 580 kts | 98° |
| 2026-05-06 19:03 | 40.37082 | 116.28786 | 35085 ft | 584 kts | 98° |
| 2026-05-06 19:04 | 40.36164 | 116.39293 | 35087 ft | 583 kts | 99° |
| 2026-05-06 19:04 | 40.35232 | 116.49874 | 35083 ft | 583 kts | 98° |
| 2026-05-06 19:05 | 40.34295 | 116.60436 | 35088 ft | 581 kts | 98° |
| 2026-05-06 19:05 | 40.33077 | 116.70885 | 35069 ft | 580 kts | 109° |
| 2026-05-06 19:06 | 40.30125 | 116.80500 | 35057 ft | 562 kts | 126° |
| 2026-05-06 19:06 | 40.26123 | 116.89291 | 35060 ft | 561 kts | 128° |
| 2026-05-06 19:07 | 40.22064 | 116.97995 | 35053 ft | 559 kts | 129° |
| 2026-05-06 19:07 | 40.17968 | 117.06709 | 35050 ft | 561 kts | 128° |
| 2026-05-06 19:08 | 40.13857 | 117.15417 | 35042 ft | 562 kts | 129° |
| 2026-05-06 19:08 | 40.09792 | 117.23994 | 35050 ft | 560 kts | 129° |
| 2026-05-06 19:09 | 40.05660 | 117.32674 | 35046 ft | 560 kts | 129° |
| 2026-05-06 19:09 | 40.01529 | 117.41328 | 35046 ft | 560 kts | 129° |
| 2026-05-06 19:10 | 39.97409 | 117.49934 | 35053 ft | 562 kts | 129° |
| 2026-05-06 19:10 | 39.93270 | 117.58553 | 35049 ft | 561 kts | 129° |
| 2026-05-06 19:11 | 39.89130 | 117.67152 | 35034 ft | 559 kts | 130° |
| 2026-05-06 19:11 | 39.84987 | 117.75732 | 35019 ft | 562 kts | 130° |
| 2026-05-06 19:12 | 39.80856 | 117.84264 | 35014 ft | 562 kts | 131° |
| 2026-05-06 19:12 | 39.76687 | 117.92852 | 35020 ft | 559 kts | 130° |
| 2026-05-06 19:13 | 39.72494 | 118.01457 | 35017 ft | 564 kts | 130° |
| 2026-05-06 19:13 | 39.68311 | 118.10030 | 35015 ft | 562 kts | 130° |
| 2026-05-06 19:14 | 39.64113 | 118.18604 | 35009 ft | 564 kts | 131° |
| 2026-05-06 19:14 | 39.59933 | 118.27124 | 35002 ft | 561 kts | 131° |
| 2026-05-06 19:15 | 39.55736 | 118.35648 | 35011 ft | 561 kts | 130° |
| 2026-05-06 19:15 | 39.51522 | 118.44186 | 35003 ft | 562 kts | 131° |
| 2026-05-06 19:16 | 39.47281 | 118.52754 | 35009 ft | 565 kts | 130° |
| 2026-05-06 19:16 | 39.43073 | 118.61243 | 35006 ft | 558 kts | 131° |
| 2026-05-06 19:17 | 39.38839 | 118.69750 | 34983 ft | 561 kts | 131° |
| 2026-05-06 19:17 | 39.34587 | 118.78271 | 34982 ft | 562 kts | 132° |
| 2026-05-06 19:18 | 39.30363 | 118.86719 | 34984 ft | 561 kts | 131° |
| 2026-05-06 19:18 | 39.26118 | 118.95183 | 34985 ft | 560 kts | 132° |
| 2026-05-06 19:19 | 39.21898 | 119.03574 | 34993 ft | 561 kts | 132° |
| 2026-05-06 19:19 | 39.17652 | 119.11997 | 34989 ft | 560 kts | 132° |
| 2026-05-06 19:20 | 39.13401 | 119.20403 | 34991 ft | 562 kts | 131° |
| 2026-05-06 19:20 | 39.09143 | 119.28809 | 34983 ft | 559 kts | 131° |
| 2026-05-06 19:21 | 39.04887 | 119.37181 | 34985 ft | 561 kts | 131° |
| 2026-05-06 19:21 | 39.00605 | 119.45589 | 34969 ft | 559 kts | 131° |
| 2026-05-06 19:22 | 38.96346 | 119.53924 | 34980 ft | 562 kts | 131° |
| 2026-05-06 19:22 | 38.92054 | 119.62306 | 34972 ft | 561 kts | 131° |
| 2026-05-06 19:23 | 38.87767 | 119.70657 | 34947 ft | 559 kts | 132° |
| 2026-05-06 19:23 | 38.83453 | 119.79034 | 34948 ft | 563 kts | 131° |
| 2026-05-06 19:24 | 38.79149 | 119.87374 | 34959 ft | 562 kts | 132° |
| 2026-05-06 19:24 | 38.75341 | 119.96198 | 34937 ft | 576 kts | 118° |
| 2026-05-06 19:25 | 38.71688 | 120.05251 | 34939 ft | 560 kts | 131° |
| 2026-05-06 19:25 | 38.66783 | 120.12718 | 34933 ft | 544 kts | 148° |
| 2026-05-06 19:26 | 38.61209 | 120.19194 | 34952 ft | 550 kts | 140° |
| 2026-05-06 19:26 | 38.58826 | 120.23142 | 34949 ft | 565 kts | 131° |
| 2026-05-06 19:26 | 38.56859 | 120.27516 | 34944 ft | 571 kts | 122° |
| 2026-05-06 19:27 | 38.54310 | 120.37306 | 34933 ft | 588 kts | 103° |
| 2026-05-06 19:27 | 38.53781 | 120.47688 | 34956 ft | 592 kts | 90° |
| 2026-05-06 19:28 | 38.53521 | 120.58197 | 34911 ft | 589 kts | 96° |
| 2026-05-06 19:28 | 38.52699 | 120.68671 | 34902 ft | 590 kts | 101° |
| 2026-05-06 19:29 | 38.51532 | 120.78946 | 34920 ft | 590 kts | 102° |
| 2026-05-06 19:29 | 38.50151 | 120.89200 | 34916 ft | 586 kts | 104° |
| 2026-05-06 19:30 | 38.48638 | 120.99450 | 34902 ft | 586 kts | 104° |
| 2026-05-06 19:30 | 38.47054 | 121.09637 | 34898 ft | 585 kts | 105° |
| 2026-05-06 19:31 | 38.45430 | 121.19830 | 34888 ft | 586 kts | 105° |
| 2026-05-06 19:31 | 38.43013 | 121.35077 | 34900 ft | 585 kts | 105° |
| 2026-05-06 19:32 | 38.41386 | 121.45219 | 34930 ft | 588 kts | 105° |
| 2026-05-06 19:32 | 38.39715 | 121.55399 | 34909 ft | 584 kts | 106° |
| 2026-05-06 19:33 | 38.38028 | 121.65527 | 34922 ft | 584 kts | 107° |
| 2026-05-06 19:33 | 38.36339 | 121.75602 | 34880 ft | 587 kts | 107° |
| 2026-05-06 19:34 | 38.34624 | 121.85772 | 34901 ft | 585 kts | 106° |
| 2026-05-06 19:34 | 38.32915 | 121.95842 | 34886 ft | 582 kts | 106° |
| 2026-05-06 19:35 | 38.31199 | 122.05892 | 34892 ft | 584 kts | 107° |
| 2026-05-06 19:35 | 38.29470 | 122.15965 | 34902 ft | 584 kts | 106° |
| 2026-05-06 19:36 | 38.27735 | 122.26032 | 34871 ft | 579 kts | 106° |
| 2026-05-06 19:36 | 38.26136 | 122.36151 | 34897 ft | 579 kts | 110° |
| 2026-05-06 19:37 | 38.23113 | 122.45428 | 34896 ft | 558 kts | 127° |
| 2026-05-06 19:37 | 38.18484 | 122.53154 | 34900 ft | 543 kts | 142° |
| 2026-05-06 19:38 | 38.13287 | 122.60112 | 34896 ft | 538 kts | 143° |
| 2026-05-06 19:38 | 38.08084 | 122.66954 | 34881 ft | 537 kts | 143° |
| 2026-05-06 19:39 | 38.02894 | 122.73785 | 34878 ft | 533 kts | 144° |
| 2026-05-06 19:39 | 37.97718 | 122.80544 | 34879 ft | 537 kts | 143° |
| 2026-05-06 19:40 | 37.92487 | 122.87344 | 34881 ft | 533 kts | 143° |
| 2026-05-06 19:40 | 37.87309 | 122.94047 | 34889 ft | 532 kts | 143° |
| 2026-05-06 19:41 | 37.82092 | 123.00776 | 34880 ft | 531 kts | 143° |
| 2026-05-06 19:41 | 37.76897 | 123.07461 | 34876 ft | 530 kts | 143° |
| 2026-05-06 19:42 | 37.71691 | 123.14143 | 34875 ft | 528 kts | 143° |
| 2026-05-06 19:42 | 37.66568 | 123.20702 | 34886 ft | 531 kts | 143° |
| 2026-05-06 19:43 | 37.61404 | 123.27299 | 34889 ft | 530 kts | 143° |
| 2026-05-06 19:43 | 37.56275 | 123.34055 | 34883 ft | 537 kts | 136° |
| 2026-05-06 19:44 | 37.51718 | 123.41605 | 34892 ft | 539 kts | 134° |
| 2026-05-06 19:44 | 37.47224 | 123.49168 | 34892 ft | 540 kts | 134° |
| 2026-05-06 19:45 | 37.42746 | 123.56677 | 34897 ft | 538 kts | 134° |
| 2026-05-06 19:45 | 37.38231 | 123.64225 | 34903 ft | 535 kts | 134° |
| 2026-05-06 19:46 | 37.33712 | 123.71755 | 34889 ft | 537 kts | 134° |
| 2026-05-06 19:46 | 37.29209 | 123.79244 | 34888 ft | 536 kts | 134° |
| 2026-05-06 19:47 | 37.24717 | 123.86695 | 34894 ft | 535 kts | 134° |
| 2026-05-06 19:47 | 37.20400 | 123.94418 | 34892 ft | 546 kts | 124° |
| 2026-05-06 19:48 | 37.17666 | 124.03333 | 34882 ft | 556 kts | 106° |
| 2026-05-06 19:48 | 37.16974 | 124.12952 | 34888 ft | 563 kts | 89° |
| 2026-05-06 19:49 | 37.17390 | 124.22746 | 34893 ft | 562 kts | 88° |
| 2026-05-06 19:49 | 37.17738 | 124.32611 | 35303 ft | 571 kts | 89° |
| 2026-05-06 19:50 | 37.17876 | 124.37572 | 36255 ft | 564 kts | 90° |
| 2026-05-06 19:50 | 37.18006 | 124.42413 | 36870 ft | 562 kts | 90° |
| 2026-05-06 19:50 | 37.18249 | 124.52183 | 36903 ft | 558 kts | 90° |
| 2026-05-06 19:51 | 37.18475 | 124.61906 | 36909 ft | 559 kts | 90° |
| 2026-05-06 19:51 | 37.18691 | 124.71654 | 36896 ft | 559 kts | 91° |
| 2026-05-06 19:52 | 37.18897 | 124.81383 | 36901 ft | 559 kts | 90° |
| 2026-05-06 19:52 | 37.19092 | 124.91036 | 36904 ft | 558 kts | 90° |
| 2026-05-06 19:53 | 37.19280 | 125.00755 | 36919 ft | 558 kts | 91° |
| 2026-05-06 19:53 | 37.19459 | 125.10452 | 36928 ft | 559 kts | 90° |
| 2026-05-06 19:54 | 37.19630 | 125.20146 | 36930 ft | 556 kts | 91° |
| 2026-05-06 19:54 | 37.19793 | 125.29877 | 36930 ft | 557 kts | 90° |
| 2026-05-06 19:55 | 37.19948 | 125.39572 | 36931 ft | 556 kts | 90° |
| 2026-05-06 19:55 | 37.20095 | 125.49219 | 36935 ft | 555 kts | 91° |
| 2026-05-06 19:56 | 37.20233 | 125.58975 | 36939 ft | 556 kts | 90° |
| 2026-05-06 19:56 | 37.20363 | 125.68686 | 36919 ft | 556 kts | 91° |
| 2026-05-06 19:57 | 37.20486 | 125.78326 | 36924 ft | 555 kts | 91° |
| 2026-05-06 19:57 | 37.20603 | 125.88058 | 36928 ft | 557 kts | 91° |
| 2026-05-06 19:58 | 37.20713 | 125.97807 | 36932 ft | 556 kts | 91° |
| 2026-05-06 19:58 | 37.20812 | 126.07484 | 36935 ft | 555 kts | 91° |
| 2026-05-06 19:59 | 37.20902 | 126.17104 | 36941 ft | 553 kts | 91° |
| 2026-05-06 19:59 | 37.20984 | 126.26764 | 36951 ft | 555 kts | 91° |
| 2026-05-06 20:00 | 37.21061 | 126.36488 | 36957 ft | 555 kts | 91° |
| 2026-05-06 20:00 | 37.21127 | 126.46194 | 36963 ft | 556 kts | 91° |
| 2026-05-06 20:01 | 37.21184 | 126.55826 | 36964 ft | 556 kts | 91° |
| 2026-05-06 20:01 | 37.21234 | 126.65551 | 36965 ft | 553 kts | 92° |
| 2026-05-06 20:02 | 37.21275 | 126.75228 | 36950 ft | 554 kts | 92° |
| 2026-05-06 20:02 | 37.21310 | 126.84817 | 36961 ft | 554 kts | 91° |
| 2026-05-06 20:03 | 37.22155 | 126.94447 | 36959 ft | 556 kts | 75° |
| 2026-05-06 20:03 | 37.24987 | 127.03415 | 36966 ft | 552 kts | 57° |
| 2026-05-06 20:04 | 37.29487 | 127.11030 | 36976 ft | 546 kts | 43° |
| 2026-05-06 20:04 | 37.34592 | 127.18111 | 36974 ft | 547 kts | 43° |
| 2026-05-06 20:05 | 37.39682 | 127.25215 | 36973 ft | 545 kts | 43° |
| 2026-05-06 20:05 | 37.44714 | 127.32379 | 36961 ft | 550 kts | 48° |
| 2026-05-06 20:06 | 37.48622 | 127.40747 | 36967 ft | 558 kts | 65° |
| 2026-05-06 20:06 | 37.50708 | 127.50111 | 36969 ft | 559 kts | 78° |
| 2026-05-06 20:07 | 37.52240 | 127.59683 | 36963 ft | 559 kts | 78° |
| 2026-05-06 20:07 | 37.53765 | 127.69300 | 36953 ft | 561 kts | 78° |
| 2026-05-06 20:08 | 37.55282 | 127.78896 | 36951 ft | 560 kts | 78° |
| 2026-05-06 20:08 | 37.56792 | 127.88491 | 36959 ft | 560 kts | 78° |
| 2026-05-06 20:09 | 37.58311 | 127.98190 | 36949 ft | 563 kts | 79° |
| 2026-05-06 20:09 | 37.59801 | 128.07767 | 36956 ft | 560 kts | 79° |
| 2026-05-06 20:10 | 37.61295 | 128.17407 | 36965 ft | 561 kts | 78° |
| 2026-05-06 20:10 | 37.62780 | 128.27052 | 36969 ft | 559 kts | 78° |
| 2026-05-06 20:11 | 37.64256 | 128.36696 | 36971 ft | 561 kts | 78° |
| 2026-05-06 20:11 | 37.65724 | 128.46332 | 36973 ft | 561 kts | 79° |
| 2026-05-06 20:12 | 37.67164 | 128.55835 | 36980 ft | 559 kts | 78° |
| 2026-05-06 20:12 | 37.68449 | 128.65492 | 36975 ft | 559 kts | 87° |
| 2026-05-06 20:13 | 37.68023 | 128.75229 | 36958 ft | 554 kts | 104° |
| 2026-05-06 20:13 | 37.65577 | 128.84360 | 36958 ft | 542 kts | 122° |
| 2026-05-06 20:14 | 37.61852 | 128.92502 | 36947 ft | 537 kts | 127° |
| 2026-05-06 20:14 | 37.57981 | 129.00595 | 36949 ft | 540 kts | 127° |
| 2026-05-06 20:15 | 37.54092 | 129.08696 | 36954 ft | 539 kts | 127° |
| 2026-05-06 20:15 | 37.50210 | 129.16754 | 36956 ft | 534 kts | 127° |
| 2026-05-06 20:16 | 37.46328 | 129.24788 | 36951 ft | 535 kts | 127° |
| 2026-05-06 20:16 | 37.42471 | 129.32754 | 36949 ft | 536 kts | 126° |
| 2026-05-06 20:17 | 37.38583 | 129.40767 | 36953 ft | 535 kts | 126° |
| 2026-05-06 20:17 | 37.34701 | 129.48746 | 36945 ft | 534 kts | 127° |
| 2026-05-06 20:18 | 37.30828 | 129.56682 | 36949 ft | 537 kts | 126° |
| 2026-05-06 20:18 | 37.26893 | 129.64728 | 36942 ft | 535 kts | 127° |
| 2026-05-06 20:19 | 37.22979 | 129.72713 | 36921 ft | 532 kts | 127° |
| 2026-05-06 20:19 | 37.19117 | 129.80572 | 36915 ft | 532 kts | 127° |
| 2026-05-06 20:20 | 37.15233 | 129.88455 | 36913 ft | 532 kts | 127° |
| 2026-05-06 20:20 | 37.11310 | 129.96399 | 36912 ft | 535 kts | 127° |
| 2026-05-06 20:21 | 37.07404 | 130.04291 | 36909 ft | 531 kts | 127° |
| 2026-05-06 20:21 | 37.03486 | 130.12184 | 36912 ft | 533 kts | 127° |
| 2026-05-06 20:22 | 36.99599 | 130.20001 | 36919 ft | 530 kts | 127° |
| 2026-05-06 20:22 | 36.95678 | 130.27866 | 36924 ft | 531 kts | 127° |
| 2026-05-06 20:23 | 36.91768 | 130.35690 | 36929 ft | 532 kts | 127° |
| 2026-05-06 20:23 | 36.87848 | 130.43515 | 36943 ft | 533 kts | 126° |
| 2026-05-06 20:24 | 36.83920 | 130.51343 | 36940 ft | 528 kts | 127° |
| 2026-05-06 20:24 | 36.79997 | 130.59137 | 36944 ft | 530 kts | 127° |
| 2026-05-06 20:25 | 36.76070 | 130.66927 | 36943 ft | 528 kts | 127° |
| 2026-05-06 20:25 | 36.72149 | 130.74684 | 36949 ft | 530 kts | 127° |
| 2026-05-06 20:26 | 36.68224 | 130.82436 | 36950 ft | 528 kts | 127° |
| 2026-05-06 20:26 | 36.65072 | 130.90782 | 36950 ft | 538 kts | 109° |
| 2026-05-06 20:27 | 36.63675 | 130.99939 | 36955 ft | 542 kts | 100° |
| 2026-05-06 20:27 | 36.62592 | 131.09199 | 36959 ft | 539 kts | 100° |
| 2026-05-06 20:28 | 36.61503 | 131.18454 | 36960 ft | 540 kts | 100° |
| 2026-05-06 20:28 | 36.60410 | 131.27672 | 36959 ft | 539 kts | 100° |
| 2026-05-06 20:29 | 36.59305 | 131.36937 | 36969 ft | 540 kts | 100° |
| 2026-05-06 20:29 | 36.58203 | 131.46112 | 36969 ft | 537 kts | 100° |
| 2026-05-06 20:30 | 36.56522 | 131.59990 | 36971 ft | 538 kts | 100° |
| 2026-05-06 20:31 | 36.55396 | 131.69208 | 36959 ft | 537 kts | 101° |
| 2026-05-06 20:31 | 36.54269 | 131.78371 | 36964 ft | 538 kts | 101° |
| 2026-05-06 20:32 | 36.53133 | 131.87555 | 36959 ft | 540 kts | 100° |
| 2026-05-06 20:32 | 36.51987 | 131.96751 | 36958 ft | 537 kts | 100° |
| 2026-05-06 20:33 | 36.50837 | 132.05931 | 36959 ft | 538 kts | 100° |
| 2026-05-06 20:33 | 36.49682 | 132.15086 | 36969 ft | 535 kts | 100° |
| 2026-05-06 20:34 | 36.48524 | 132.24202 | 36969 ft | 535 kts | 100° |
| 2026-05-06 20:34 | 36.47352 | 132.33380 | 36973 ft | 534 kts | 100° |
| 2026-05-06 20:35 | 36.46181 | 132.42490 | 36974 ft | 533 kts | 100° |
| 2026-05-06 20:35 | 36.45006 | 132.51575 | 36978 ft | 534 kts | 101° |
| 2026-05-06 20:36 | 36.43824 | 132.60660 | 36989 ft | 534 kts | 100° |
| 2026-05-06 20:36 | 36.42635 | 132.69740 | 36982 ft | 531 kts | 101° |
| 2026-05-06 20:37 | 36.41436 | 132.78834 | 36990 ft | 531 kts | 101° |
| 2026-05-06 20:37 | 36.40239 | 132.87871 | 36990 ft | 532 kts | 101° |
| 2026-05-06 20:38 | 36.39030 | 132.96939 | 36999 ft | 530 kts | 101° |
| 2026-05-06 20:38 | 36.37816 | 133.05988 | 36999 ft | 530 kts | 101° |
| 2026-05-06 20:39 | 36.36603 | 133.14972 | 37003 ft | 530 kts | 101° |
| 2026-05-06 20:39 | 36.35383 | 133.23967 | 37003 ft | 528 kts | 101° |
| 2026-05-06 20:40 | 36.34149 | 133.33006 | 37007 ft | 529 kts | 101° |
| 2026-05-06 20:40 | 36.32919 | 133.41966 | 37005 ft | 529 kts | 101° |
| 2026-05-06 20:41 | 36.31678 | 133.50951 | 37006 ft | 529 kts | 101° |
| 2026-05-06 20:41 | 36.30426 | 133.59964 | 37019 ft | 527 kts | 101° |
| 2026-05-06 20:42 | 36.29176 | 133.68912 | 37000 ft | 527 kts | 101° |
| 2026-05-06 20:42 | 36.28068 | 133.77859 | 37000 ft | 528 kts | 95° |
| 2026-05-06 20:43 | 36.27604 | 133.86926 | 37006 ft | 527 kts | 94° |
| 2026-05-06 20:43 | 36.27158 | 133.95999 | 37009 ft | 528 kts | 94° |
| 2026-05-06 20:44 | 36.26699 | 134.05106 | 37007 ft | 528 kts | 94° |
| 2026-05-06 20:44 | 36.26235 | 134.14104 | 37009 ft | 526 kts | 94° |
| 2026-05-06 20:45 | 36.25758 | 134.23192 | 37012 ft | 526 kts | 94° |
| 2026-05-06 20:45 | 36.25276 | 134.32234 | 37015 ft | 527 kts | 94° |
| 2026-05-06 20:46 | 36.24789 | 134.41240 | 37019 ft | 527 kts | 95° |
| 2026-05-06 20:46 | 36.24542 | 134.50291 | 37019 ft | 525 kts | 85° |
| 2026-05-06 20:47 | 36.25777 | 134.59225 | 37021 ft | 525 kts | 77° |
| 2026-05-06 20:47 | 36.27269 | 134.68060 | 37007 ft | 522 kts | 78° |
| 2026-05-06 20:48 | 36.28744 | 134.76839 | 37009 ft | 524 kts | 78° |
| 2026-05-06 20:48 | 36.30221 | 134.85683 | 37009 ft | 524 kts | 78° |
| 2026-05-06 20:49 | 36.31684 | 134.94496 | 37011 ft | 523 kts | 78° |
| 2026-05-06 20:49 | 36.33142 | 135.03325 | 37013 ft | 525 kts | 78° |
| 2026-05-06 20:50 | 36.34598 | 135.12186 | 37014 ft | 525 kts | 78° |
| 2026-05-06 20:50 | 36.36046 | 135.21039 | 37016 ft | 524 kts | 78° |
| 2026-05-06 20:51 | 36.37491 | 135.29923 | 37019 ft | 524 kts | 78° |
| 2026-05-06 20:51 | 36.38919 | 135.38745 | 37020 ft | 522 kts | 78° |
| 2026-05-06 20:52 | 36.40345 | 135.47600 | 37022 ft | 523 kts | 78° |
| 2026-05-06 20:52 | 36.41772 | 135.56500 | 37023 ft | 523 kts | 78° |
| 2026-05-06 20:53 | 36.43180 | 135.65329 | 37026 ft | 522 kts | 78° |
| 2026-05-06 20:53 | 36.44581 | 135.74156 | 37017 ft | 522 kts | 78° |
| 2026-05-06 20:54 | 36.45981 | 135.83020 | 37020 ft | 522 kts | 78° |
| 2026-05-06 20:54 | 36.47373 | 135.91885 | 37021 ft | 524 kts | 78° |
| 2026-05-06 20:55 | 36.48761 | 136.00766 | 37024 ft | 521 kts | 78° |
| 2026-05-06 20:55 | 36.50135 | 136.09598 | 37029 ft | 524 kts | 78° |
| 2026-05-06 20:56 | 36.51509 | 136.18478 | 37032 ft | 521 kts | 78° |
| 2026-05-06 20:56 | 36.52876 | 136.27361 | 37038 ft | 521 kts | 78° |
| 2026-05-06 20:57 | 36.54224 | 136.36165 | 37034 ft | 523 kts | 78° |
| 2026-05-06 20:57 | 36.55574 | 136.45026 | 37044 ft | 522 kts | 78° |
| 2026-05-06 20:58 | 36.56922 | 136.53922 | 37045 ft | 520 kts | 78° |
| 2026-05-06 20:58 | 36.58259 | 136.62790 | 37042 ft | 520 kts | 78° |
| 2026-05-06 20:59 | 36.59583 | 136.71622 | 37042 ft | 521 kts | 79° |
| 2026-05-06 20:59 | 36.60904 | 136.80478 | 37043 ft | 522 kts | 79° |
| 2026-05-06 21:00 | 36.62221 | 136.89351 | 37041 ft | 521 kts | 79° |
| 2026-05-06 21:00 | 36.63533 | 136.98268 | 37041 ft | 522 kts | 79° |
| 2026-05-06 21:01 | 36.64813 | 137.07163 | 37046 ft | 519 kts | 79° |
| 2026-05-06 21:01 | 36.66081 | 137.16026 | 37044 ft | 523 kts | 79° |
| 2026-05-06 21:02 | 36.67340 | 137.24870 | 37046 ft | 522 kts | 79° |
| 2026-05-06 21:02 | 36.68600 | 137.33766 | 37053 ft | 520 kts | 79° |
| 2026-05-06 21:03 | 36.69850 | 137.42642 | 37073 ft | 522 kts | 79° |
| 2026-05-06 21:03 | 36.71098 | 137.51549 | 37080 ft | 521 kts | 79° |
| 2026-05-06 21:04 | 36.72337 | 137.60440 | 37101 ft | 521 kts | 79° |
| 2026-05-06 21:04 | 36.73569 | 137.69330 | 37142 ft | 521 kts | 79° |
| 2026-05-06 21:05 | 36.74768 | 137.78036 | 37227 ft | 519 kts | 79° |
| 2026-05-06 21:05 | 36.75919 | 137.86436 | 37165 ft | 521 kts | 79° |
| 2026-05-06 21:06 | 36.77130 | 137.95328 | 37117 ft | 520 kts | 79° |
| 2026-05-06 21:06 | 36.78337 | 138.04237 | 37090 ft | 520 kts | 79° |
| 2026-05-06 21:07 | 36.79533 | 138.13065 | 37089 ft | 517 kts | 79° |
| 2026-05-06 21:07 | 36.80757 | 138.21936 | 37084 ft | 519 kts | 79° |
| 2026-05-06 21:08 | 36.81976 | 138.30821 | 37090 ft | 519 kts | 79° |
| 2026-05-06 21:08 | 36.83183 | 138.39681 | 37093 ft | 519 kts | 79° |
| 2026-05-06 21:09 | 36.84386 | 138.48564 | 37105 ft | 518 kts | 79° |
| 2026-05-06 21:09 | 36.85558 | 138.57402 | 37112 ft | 518 kts | 79° |
| 2026-05-06 21:10 | 36.86728 | 138.66289 | 37107 ft | 517 kts | 79° |
| 2026-05-06 21:10 | 36.87870 | 138.75024 | 36323 ft | 511 kts | 79° |
| 2026-05-06 21:10 | 36.88419 | 138.79236 | 35255 ft | 516 kts | 79° |
| 2026-05-06 21:11 | 36.88994 | 138.83658 | 34267 ft | 519 kts | 79° |
| 2026-05-06 21:11 | 36.89568 | 138.88083 | 33346 ft | 520 kts | 79° |
| 2026-05-06 21:11 | 36.90146 | 138.92561 | 32458 ft | 521 kts | 79° |
| 2026-05-06 21:11 | 36.90717 | 138.96994 | 31500 ft | 524 kts | 80° |
| 2026-05-06 21:12 | 36.91299 | 139.01527 | 30553 ft | 526 kts | 80° |
| 2026-05-06 21:12 | 36.91878 | 139.06052 | 30018 ft | 520 kts | 80° |
| 2026-05-06 21:12 | 36.92444 | 139.10452 | 29478 ft | 514 kts | 80° |
| 2026-05-06 21:12 | 36.93018 | 139.14851 | 28848 ft | 510 kts | 80° |
| 2026-05-06 21:13 | 36.93588 | 139.19222 | 28179 ft | 508 kts | 80° |
| 2026-05-06 21:13 | 36.94150 | 139.23547 | 27522 ft | 505 kts | 80° |
| 2026-05-06 21:13 | 36.94709 | 139.27864 | 26871 ft | 502 kts | 81° |
| 2026-05-06 21:13 | 36.95069 | 139.32179 | 26210 ft | 499 kts | 89° |
| 2026-05-06 21:14 | 36.94902 | 139.36494 | 25564 ft | 494 kts | 98° |
| 2026-05-06 21:14 | 36.94226 | 139.40648 | 24908 ft | 489 kts | 108° |
| 2026-05-06 21:14 | 36.93050 | 139.44601 | 24246 ft | 483 kts | 117° |
| 2026-05-06 21:14 | 36.91410 | 139.48245 | 23591 ft | 477 kts | 126° |
| 2026-05-06 21:15 | 36.89366 | 139.51468 | 22886 ft | 471 kts | 136° |
| 2026-05-06 21:15 | 36.87000 | 139.54199 | 22209 ft | 466 kts | 144° |
| 2026-05-06 21:15 | 36.84423 | 139.56676 | 21508 ft | 462 kts | 146° |
| 2026-05-06 21:15 | 36.81852 | 139.58990 | 20816 ft | 460 kts | 148° |
| 2026-05-06 21:16 | 36.79227 | 139.61255 | 20130 ft | 456 kts | 148° |
| 2026-05-06 21:16 | 36.76579 | 139.63452 | 19438 ft | 453 kts | 149° |
| 2026-05-06 21:16 | 36.73958 | 139.65562 | 18753 ft | 449 kts | 150° |
| 2026-05-06 21:16 | 36.71324 | 139.67642 | 18079 ft | 445 kts | 151° |
| 2026-05-06 21:17 | 36.68708 | 139.69673 | 17404 ft | 440 kts | 151° |
| 2026-05-06 21:17 | 36.66139 | 139.71645 | 16947 ft | 430 kts | 151° |
| 2026-05-06 21:17 | 36.63611 | 139.73567 | 16184 ft | 430 kts | 152° |
| 2026-05-06 21:17 | 36.61049 | 139.75502 | 15539 ft | 425 kts | 152° |
| 2026-05-06 21:18 | 36.58551 | 139.77380 | 15059 ft | 415 kts | 152° |
| 2026-05-06 21:18 | 36.56090 | 139.79221 | 14193 ft | 409 kts | 152° |
| 2026-05-06 21:18 | 36.53710 | 139.80995 | 13492 ft | 400 kts | 152° |
| 2026-05-06 21:18 | 36.51350 | 139.82752 | 12849 ft | 389 kts | 152° |
| 2026-05-06 21:19 | 36.49041 | 139.84465 | 12226 ft | 379 kts | 152° |
| 2026-05-06 21:19 | 36.46825 | 139.86107 | 11632 ft | 370 kts | 152° |
| 2026-05-06 21:19 | 36.44651 | 139.87715 | 11054 ft | 361 kts | 152° |
| 2026-05-06 21:19 | 36.42529 | 139.89284 | 10808 ft | 343 kts | 152° |
| 2026-05-06 21:20 | 36.40532 | 139.90761 | 10730 ft | 322 kts | 152° |
| 2026-05-06 21:20 | 36.38661 | 139.92142 | 10616 ft | 304 kts | 152° |
| 2026-05-06 21:20 | 36.36904 | 139.93434 | 10513 ft | 289 kts | 152° |
| 2026-05-06 21:20 | 36.35178 | 139.94704 | 10373 ft | 286 kts | 152° |
| 2026-05-06 21:21 | 36.33466 | 139.95962 | 10198 ft | 284 kts | 152° |
| 2026-05-06 21:21 | 36.31770 | 139.97209 | 10039 ft | 282 kts | 152° |
| 2026-05-06 21:21 | 36.30064 | 139.98463 | 9788 ft | 284 kts | 152° |
| 2026-05-06 21:21 | 36.28368 | 139.99709 | 9397 ft | 286 kts | 152° |
| 2026-05-06 21:22 | 36.26665 | 140.00960 | 9029 ft | 286 kts | 152° |
| 2026-05-06 21:22 | 36.24956 | 140.02214 | 8686 ft | 285 kts | 152° |
| 2026-05-06 21:22 | 36.23245 | 140.03470 | 8341 ft | 285 kts | 152° |
| 2026-05-06 21:22 | 36.21542 | 140.04719 | 7996 ft | 284 kts | 152° |
| 2026-05-06 21:23 | 36.19829 | 140.05975 | 7649 ft | 283 kts | 152° |
| 2026-05-06 21:23 | 36.18148 | 140.07207 | 7316 ft | 282 kts | 152° |
| 2026-05-06 21:23 | 36.16443 | 140.08456 | 6976 ft | 282 kts | 152° |
| 2026-05-06 21:23 | 36.14775 | 140.09677 | 6644 ft | 281 kts | 151° |
| 2026-05-06 21:24 | 36.13097 | 140.10906 | 6308 ft | 280 kts | 152° |
| 2026-05-06 21:24 | 36.11420 | 140.12131 | 5975 ft | 279 kts | 152° |
| 2026-05-06 21:24 | 36.09753 | 140.13348 | 5642 ft | 278 kts | 152° |
| 2026-05-06 21:24 | 36.08077 | 140.14572 | 5309 ft | 276 kts | 152° |
| 2026-05-06 21:25 | 36.06436 | 140.15771 | 5020 ft | 273 kts | 152° |
| 2026-05-06 21:25 | 36.04826 | 140.16948 | 4966 ft | 260 kts | 152° |
| 2026-05-06 21:25 | 36.03308 | 140.18056 | 4961 ft | 247 kts | 152° |
| 2026-05-06 21:25 | 36.01854 | 140.19116 | 4960 ft | 233 kts | 152° |
| 2026-05-06 21:26 | 36.00499 | 140.20105 | 4961 ft | 220 kts | 153° |
| 2026-05-06 21:26 | 35.99227 | 140.21045 | 4972 ft | 206 kts | 151° |
| 2026-05-06 21:26 | 35.98032 | 140.21980 | 4758 ft | 200 kts | 151° |
| 2026-05-06 21:26 | 35.96849 | 140.22873 | 4505 ft | 195 kts | 152° |
| 2026-05-06 21:27 | 35.95697 | 140.23708 | 4263 ft | 190 kts | 153° |
| 2026-05-06 21:27 | 35.94562 | 140.24518 | 4020 ft | 186 kts | 153° |
| 2026-05-06 21:27 | 35.93457 | 140.25304 | 3782 ft | 182 kts | 153° |
| 2026-05-06 21:27 | 35.92358 | 140.26088 | 3541 ft | 179 kts | 153° |
| 2026-05-06 21:28 | 35.91292 | 140.26854 | 3306 ft | 176 kts | 153° |
| 2026-05-06 21:28 | 35.90230 | 140.27620 | 3071 ft | 173 kts | 153° |
| 2026-05-06 21:28 | 35.89198 | 140.28360 | 2844 ft | 169 kts | 153° |
| 2026-05-06 21:28 | 35.88211 | 140.29065 | 2624 ft | 155 kts | 153° |
| 2026-05-06 21:29 | 35.87339 | 140.29694 | 2420 ft | 143 kts | 152° |
| 2026-05-06 21:29 | 35.86467 | 140.30319 | 2179 ft | 141 kts | 152° |
| 2026-05-06 21:29 | 35.85638 | 140.30925 | 2009 ft | 141 kts | 152° |
| 2026-05-06 21:29 | 35.84784 | 140.31543 | 1821 ft | 140 kts | 153° |
| 2026-05-06 21:30 | 35.83938 | 140.32152 | 1636 ft | 142 kts | 152° |
| 2026-05-06 21:30 | 35.83084 | 140.32770 | 1446 ft | 142 kts | 152° |
| 2026-05-06 21:30 | 35.82248 | 140.33372 | 1251 ft | 141 kts | 152° |
| 2026-05-06 21:30 | 35.81391 | 140.33990 | 1050 ft | 140 kts | 152° |
| 2026-05-06 21:31 | 35.80541 | 140.34605 | 865 ft | 141 kts | 151° |
| 2026-05-06 21:31 | 35.79696 | 140.35213 | 677 ft | 142 kts | 150° |
| 2026-05-06 21:31 | 35.78841 | 140.35829 | 490 ft | 141 kts | 150° |
| 2026-05-06 21:31 | 35.77993 | 140.36436 | 315 ft | 140 kts | 148° |
| 2026-05-06 21:32 | 35.77156 | 140.37045 | 168 ft | 140 kts | 148° |
| 2026-05-06 21:32 | 35.75753 | 140.38048 | 144 ft | 67 kts | 149° |
| 2026-05-06 21:32 | 35.75570 | 140.38222 | 145 ft | 29 kts | 131° |
| 2026-05-06 21:33 | 35.75504 | 140.38339 | 145 ft | 11 kts | 120° |
| 2026-05-06 21:33 | 35.75465 | 140.38425 | 144 ft | 9 kts | 110° |
| 2026-05-06 21:33 | 35.75475 | 140.38503 | 143 ft | 8 kts | 61° |
| 2026-05-06 21:33 | 35.75507 | 140.38564 | 143 ft | 8 kts | 45° |
| 2026-05-06 21:34 | 35.75558 | 140.38576 | 143 ft | 8 kts | 332° |
| 2026-05-06 21:34 | 35.75610 | 140.38538 | 143 ft | 9 kts | 329° |
| 2026-05-06 21:34 | 35.75672 | 140.38490 | 143 ft | 11 kts | 327° |
| 2026-05-06 21:34 | 35.75742 | 140.38469 | 143 ft | 10 kts | 25° |
| 2026-05-06 21:35 | 35.75806 | 140.38498 | 143 ft | 7 kts | 356° |
| 2026-05-06 21:35 | 35.75852 | 140.38472 | 143 ft | 7 kts | 330° |
| 2026-05-06 21:35 | 35.75900 | 140.38457 | 143 ft | 6 kts | 22° |
| 2026-05-06 21:35 | 35.75908 | 140.38469 | 143 ft | 1 kts | 73° |
| 2026-05-06 21:36 | 35.75914 | 140.38492 | 143 ft | 4 kts | 72° |
| 2026-05-06 21:36 | 35.75925 | 140.38522 | 143 ft | 2 kts | 62° |
| 2026-05-06 21:36 | 35.75932 | 140.38539 | 143 ft | 0 kts | 60° |
| 2026-05-06 21:36 | 35.75935 | 140.38545 | 143 ft | 0 kts | 60° |
| 2026-05-06 21:37 | 35.75936 | 140.38547 | 143 ft | 0 kts | 60° |